createdAt,value
2018-09-26T00:01:33.466Z,2.30
2018-09-26T00:04:09.112Z,2.37
2018-09-26T00:06:37.011Z,2.47
2018-09-26T00:09:07.077Z,2.63
2018-09-26T00:11:34.996Z,2.63
2018-09-26T00:14:03.082Z,2.40
2018-09-26T00:16:31.223Z,2.53
2018-09-26T00:18:59.486Z,2.40
2018-09-26T00:21:27.295Z,2.43
2018-09-26T00:23:55.142Z,2.90
2018-09-26T00:26:22.812Z,2.30
2018-09-26T00:28:50.642Z,2.57
2018-09-26T00:31:18.490Z,2.10
2018-09-26T00:33:46.281Z,3.00
2018-09-26T00:36:14.252Z,3.07
2018-09-26T00:38:42.277Z,2.93
2018-09-26T00:41:10.746Z,2.80
2018-09-26T00:43:38.896Z,3.00
2018-09-26T00:46:07.908Z,2.50
2018-09-26T00:48:35.937Z,3.00
2018-09-26T00:51:03.920Z,2.90
2018-09-26T00:53:31.651Z,2.43
2018-09-26T00:56:01.045Z,3.50
2018-09-26T00:58:29.061Z,2.97
2018-09-26T01:00:57.237Z,3.10
2018-09-26T01:03:25.128Z,2.60
2018-09-26T01:05:53.013Z,3.00
2018-09-26T01:08:20.882Z,2.73
2018-09-26T01:10:48.879Z,2.50
2018-09-26T01:13:16.558Z,2.67
2018-09-26T01:15:44.400Z,2.90
2018-09-26T01:18:12.405Z,3.33
2018-09-26T01:20:42.076Z,2.63
2018-09-26T01:23:10.279Z,2.40
2018-09-26T01:25:38.122Z,4.63
2018-09-26T01:28:06.249Z,2.73
2018-09-26T01:30:33.960Z,2.37
2018-09-26T01:33:02.295Z,2.43
2018-09-26T01:35:30.351Z,2.50
2018-09-26T01:37:58.601Z,3.03
2018-09-26T01:40:26.313Z,3.40
2018-09-26T01:42:54.453Z,2.10
2018-09-26T01:45:24.967Z,2.80
2018-09-26T01:47:52.829Z,2.80
2018-09-26T01:50:20.731Z,2.57
2018-09-26T01:52:48.376Z,2.43
2018-09-26T01:55:16.109Z,2.80
2018-09-26T01:57:43.931Z,2.60
2018-09-26T02:00:11.749Z,2.77
2018-09-26T02:02:39.726Z,2.43
2018-09-26T02:05:07.728Z,2.10
2018-09-26T02:07:35.393Z,2.67
2018-09-26T02:10:03.340Z,2.77
2018-09-26T02:12:31.664Z,3.00
2018-09-26T02:14:59.478Z,2.80
2018-09-26T02:17:27.490Z,2.57
2018-09-26T02:19:55.357Z,2.60
2018-09-26T02:22:24.556Z,2.80
2018-09-26T02:24:52.445Z,3.13
2018-09-26T02:27:20.184Z,3.03
2018-09-26T02:29:48.035Z,2.93
2018-09-26T02:32:15.992Z,3.23
2018-09-26T02:34:43.796Z,3.23
2018-09-26T02:37:11.534Z,2.83
2018-09-26T02:39:40.178Z,2.90
2018-09-26T02:42:08.256Z,2.90
2018-09-26T02:44:36.075Z,2.87
2018-09-26T02:47:04.266Z,3.20
2018-09-26T02:49:32.359Z,2.77
2018-09-26T02:52:00.179Z,2.63
2018-09-26T02:54:28.009Z,2.73
2018-09-26T02:56:55.856Z,2.70
2018-09-26T02:59:23.710Z,2.60
2018-09-26T03:01:51.692Z,4.10
2018-09-26T03:04:19.430Z,3.10
2018-09-26T03:06:47.253Z,2.70
2018-09-26T03:09:15.306Z,2.70
2018-09-26T03:11:43.154Z,3.13
2018-09-26T03:14:10.943Z,2.50
2018-09-26T03:16:38.881Z,3.30
2018-09-26T03:19:07.524Z,3.30
2018-09-26T03:21:35.186Z,2.70
2018-09-26T03:24:03.066Z,3.00
2018-09-26T03:26:30.907Z,3.37
2018-09-26T03:28:58.729Z,2.90
2018-09-26T03:31:26.770Z,2.43
2018-09-26T03:33:54.624Z,2.53
2018-09-26T03:36:22.438Z,2.90
2018-09-26T03:38:50.459Z,2.53
2018-09-26T03:41:19.478Z,2.30
2018-09-26T03:43:48.994Z,2.50
2018-09-26T03:46:16.826Z,2.10
2018-09-26T03:48:44.882Z,2.70
2018-09-26T03:51:12.882Z,2.60
2018-09-26T03:53:40.572Z,3.10
2018-09-26T03:56:08.505Z,2.20
2018-09-26T03:58:36.299Z,2.80
2018-09-26T04:01:04.462Z,2.70
2018-09-26T04:03:32.359Z,2.27
2018-09-26T04:06:00.342Z,2.63
2018-09-26T04:08:28.227Z,2.37
2018-09-26T04:10:56.086Z,2.40
2018-09-26T04:13:23.777Z,2.73
2018-09-26T04:15:53.461Z,2.27
2018-09-26T04:18:22.866Z,2.53
2018-09-26T04:20:50.740Z,2.33
2018-09-26T04:23:18.593Z,3.17
2018-09-26T04:25:46.498Z,2.10
2018-09-26T04:28:18.306Z,2.90
2018-09-26T04:30:46.196Z,2.60
2018-09-26T04:33:21.050Z,2.80
2018-09-26T04:35:49.015Z,2.60
2018-09-26T04:38:16.963Z,2.87
2018-09-26T04:40:44.732Z,2.87
2018-09-26T04:43:12.644Z,2.50
2018-09-26T04:45:40.403Z,2.27
2018-09-26T04:48:08.122Z,2.80
2018-09-26T04:50:36.249Z,2.80
2018-09-26T04:53:04.171Z,2.50
2018-09-26T04:55:32.464Z,2.67
2018-09-26T04:58:00.655Z,2.40
2018-09-26T05:00:28.585Z,2.20
2018-09-26T05:02:56.620Z,2.83
2018-09-26T05:05:24.809Z,2.30
2018-09-26T05:07:53.212Z,2.87
2018-09-26T05:10:21.366Z,2.70
2018-09-26T05:12:49.107Z,2.27
2018-09-26T05:15:17.596Z,2.60
2018-09-26T05:17:45.303Z,2.57
2018-09-26T05:20:12.921Z,3.50
2018-09-26T05:22:40.559Z,2.80
2018-09-26T05:25:08.196Z,3.03
2018-09-26T05:27:36.169Z,2.23
2018-09-26T05:30:04.354Z,2.43
2018-09-26T05:32:32.323Z,3.00
2018-09-26T05:35:00.146Z,2.93
2018-09-26T05:37:28.236Z,2.90
2018-09-26T05:39:56.189Z,2.93
2018-09-26T05:42:24.132Z,2.50
2018-09-26T05:44:51.996Z,2.97
2018-09-26T05:47:19.932Z,2.10
2018-09-26T05:49:48.556Z,2.20
2018-09-26T05:52:16.451Z,3.50
2018-09-26T05:54:44.327Z,2.60
2018-09-26T05:57:12.224Z,3.00
2018-09-26T05:59:40.013Z,2.77
2018-09-26T06:02:07.673Z,2.87
2018-09-26T06:04:35.414Z,2.80
2018-09-26T06:07:04.141Z,2.40
2018-09-26T06:09:32.073Z,2.83
2018-09-26T06:12:06.860Z,2.20
2018-09-26T06:14:34.521Z,2.57
2018-09-26T06:17:02.270Z,2.17
2018-09-26T06:19:30.168Z,2.17
2018-09-26T06:21:58.077Z,2.70
2018-09-26T06:24:25.826Z,2.07
2018-09-26T06:26:53.505Z,2.20
2018-09-26T06:29:21.310Z,2.33
2018-09-26T06:31:48.945Z,2.20
2018-09-26T06:34:17.535Z,1.80
2018-09-26T06:36:45.293Z,2.70
2018-09-26T06:39:13.092Z,2.40
2018-09-26T06:41:41.041Z,1.97
2018-09-26T06:44:08.875Z,2.40
2018-09-26T06:46:36.962Z,2.50
2018-09-26T06:49:05.041Z,2.10
2018-09-26T06:51:33.108Z,2.40
2018-09-26T06:54:01.585Z,2.27
2018-09-26T06:56:29.393Z,2.80
2018-09-26T06:58:57.231Z,2.00
2018-09-26T07:01:25.099Z,2.57
2018-09-26T07:03:53.024Z,2.50
2018-09-26T07:06:20.949Z,2.37
2018-09-26T07:08:48.760Z,1.90
2018-09-26T07:11:16.661Z,2.00
2018-09-26T07:13:44.490Z,2.23
2018-09-26T07:16:12.310Z,2.50
2018-09-26T07:18:39.980Z,2.40
2018-09-26T07:21:07.793Z,2.30
2018-09-26T07:23:35.564Z,2.50
2018-09-26T07:26:03.283Z,2.30
2018-09-26T07:28:30.974Z,2.23
2018-09-26T07:30:58.657Z,3.33
2018-09-26T07:33:26.448Z,2.30
2018-09-26T07:35:57.453Z,2.10
2018-09-26T07:38:25.295Z,2.00
2018-09-26T07:40:53.075Z,2.23
2018-09-26T07:43:21.286Z,1.90
2018-09-26T07:45:49.050Z,1.87
2018-09-26T07:48:17.175Z,2.00
2018-09-26T07:50:45.156Z,2.33
2018-09-26T07:53:13.151Z,1.60
2018-09-26T07:55:40.713Z,1.50
2018-09-26T07:58:08.499Z,2.30
2018-09-26T08:00:36.251Z,1.90
2018-09-26T08:03:03.897Z,2.10
2018-09-26T08:05:31.768Z,1.70
2018-09-26T08:08:04.586Z,1.80
2018-09-26T08:10:32.442Z,1.70
2018-09-26T08:13:00.228Z,2.00
2018-09-26T08:15:28.372Z,1.90
2018-09-26T08:17:56.215Z,2.00
2018-09-26T08:20:24.245Z,2.20
2018-09-26T08:22:52.103Z,1.60
2018-09-26T08:25:19.801Z,2.77
2018-09-26T08:27:47.795Z,2.00
2018-09-26T08:30:15.658Z,1.40
2018-09-26T08:32:43.605Z,2.13
2018-09-26T08:35:11.414Z,2.20
2018-09-26T08:37:39.408Z,2.10
2018-09-26T08:40:07.146Z,3.10
2018-09-26T08:42:35.086Z,1.90
2018-09-26T08:45:03.229Z,1.57
2018-09-26T08:47:31.031Z,2.17
2018-09-26T08:49:58.896Z,1.80
2018-09-26T08:52:26.643Z,2.53
2018-09-26T08:54:54.561Z,1.57
2018-09-26T08:57:29.081Z,1.73
2018-09-26T08:59:59.801Z,2.07
2018-09-26T09:02:27.443Z,2.23
2018-09-26T09:04:55.358Z,2.10
2018-09-26T09:07:23.233Z,1.43
2018-09-26T09:09:50.946Z,1.50
2018-09-26T09:12:19.261Z,1.40
2018-09-26T09:14:47.420Z,1.93
2018-09-26T09:17:16.022Z,1.50
2018-09-26T09:19:44.061Z,1.60
2018-09-26T09:22:11.983Z,1.53
2018-09-26T09:24:39.894Z,2.03
2018-09-26T09:27:07.642Z,1.83
2018-09-26T09:29:35.533Z,3.80
2018-09-26T09:32:03.399Z,2.10
2018-09-26T09:34:31.324Z,1.77
2018-09-26T09:41:59.740Z,1.70
2018-09-26T12:29:01.994Z,1.27
2018-09-26T12:31:29.778Z,2.27
2018-09-26T12:33:58.451Z,1.30
2018-09-26T12:36:26.551Z,1.40
2018-09-26T12:38:54.294Z,1.50
2018-09-26T12:41:22.200Z,1.80
2018-09-26T12:43:49.941Z,1.53
2018-09-26T12:46:17.898Z,1.53
2018-09-26T12:48:45.713Z,2.07
2018-09-26T12:51:13.754Z,1.60
2018-09-26T12:53:41.631Z,1.30
2018-09-26T12:56:09.408Z,1.60
2018-09-26T12:58:37.096Z,1.50
2018-09-26T13:01:05.202Z,1.40
2018-09-26T13:03:33.133Z,2.43
2018-09-26T13:06:01.522Z,1.70
2018-09-26T13:08:29.447Z,1.57
2018-09-26T13:10:57.357Z,1.60
2018-09-26T13:13:25.520Z,1.80
2018-09-26T13:15:53.472Z,2.07
2018-09-26T13:18:21.372Z,1.40
2018-09-26T13:20:49.612Z,1.43
2018-09-26T13:23:17.547Z,2.40
2018-09-26T13:25:45.426Z,3.70
2018-09-26T13:28:14.308Z,1.77
2018-09-26T13:30:42.416Z,2.00
2018-09-26T13:33:10.596Z,1.80
2018-09-26T13:35:40.686Z,3.93
2018-09-26T13:38:08.874Z,2.00
2018-09-26T13:40:37.516Z,2.00
2018-09-26T13:43:05.641Z,2.40
2018-09-26T13:45:33.359Z,1.70
2018-09-26T13:48:01.110Z,1.93
2018-09-26T13:50:29.409Z,2.03
2018-09-26T13:52:57.718Z,1.80
2018-09-26T13:55:25.522Z,1.90
2018-09-26T13:57:54.559Z,1.50
2018-09-26T14:00:22.982Z,2.37
2018-09-26T14:02:50.911Z,2.20
2018-09-26T14:05:22.565Z,2.37
2018-09-26T14:07:50.801Z,2.20
2018-09-26T14:10:18.599Z,2.00
2018-09-26T14:12:46.588Z,1.63
2018-09-26T14:15:15.202Z,2.20
2018-09-26T14:17:43.466Z,2.40
2018-09-26T14:20:11.571Z,2.50
2018-09-26T14:22:39.592Z,2.45
2018-09-26T14:25:07.256Z,2.90
2018-09-26T14:27:35.476Z,2.30
2018-09-26T14:30:03.235Z,2.10
2018-09-26T14:32:31.094Z,1.87
2018-09-26T14:34:59.043Z,3.07
2018-09-26T14:37:28.161Z,2.70
2018-09-26T14:39:57.915Z,3.25
2018-09-26T14:42:26.226Z,3.00
2018-09-26T14:44:54.862Z,2.40
2018-09-26T14:47:22.933Z,2.30
2018-09-26T14:49:52.182Z,2.53
2018-09-26T14:52:20.485Z,2.40
2018-09-26T14:54:49.038Z,3.50
2018-09-26T14:57:17.021Z,3.00
2018-09-26T14:59:44.794Z,2.65
2018-09-26T15:02:13.402Z,3.30
2018-09-26T15:04:41.528Z,3.13
2018-09-26T15:07:09.429Z,2.80
2018-09-26T15:09:37.293Z,2.13
2018-09-26T15:12:05.318Z,2.65
2018-09-26T15:14:33.185Z,3.30
2018-09-26T15:17:04.133Z,2.47
2018-09-26T15:19:31.996Z,2.75
2018-09-26T15:22:00.094Z,2.45
2018-09-26T15:24:34.590Z,2.95
2018-09-26T15:27:02.342Z,2.80
2018-09-26T15:29:30.141Z,3.30
2018-09-26T15:31:58.107Z,3.00
2018-09-26T15:34:26.013Z,3.10
2018-09-26T15:36:54.045Z,3.75
2018-09-26T15:39:22.306Z,3.05
2018-09-26T15:41:50.027Z,3.80
2018-09-26T15:44:21.341Z,3.40
2018-09-26T15:46:49.095Z,2.90
2018-09-26T15:51:44.218Z,4.00
2018-09-26T15:54:12.116Z,3.60
2018-09-26T15:59:07.062Z,4.15
2018-09-26T16:04:02.142Z,4.05
2018-09-26T16:06:29.887Z,3.70
2018-09-26T16:08:57.743Z,3.60
2018-09-26T16:11:25.545Z,4.10
2018-09-26T16:13:53.355Z,4.55
2018-09-26T16:16:21.297Z,4.50
2018-09-26T16:18:49.302Z,3.40
2018-09-26T16:21:17.008Z,4.20
2018-09-26T16:23:44.954Z,4.10
2018-09-26T16:28:39.954Z,4.25
2018-09-26T16:38:29.858Z,4.20
2018-09-26T16:40:57.587Z,4.60
2018-09-26T16:48:21.683Z,4.20
2018-09-26T16:53:17.408Z,5.40
2018-09-26T16:58:12.831Z,5.60
2018-09-26T17:03:07.621Z,5.20
2018-09-26T17:05:35.409Z,5.30
2018-09-26T19:35:27.534Z,6.40
2018-09-26T21:18:38.838Z,4.30
